sensor_id;sensor_type;location;lat;lon;timestamp;P1;durP1;ratioP1;P2;durP2;ratioP2
78197;SDS011;67472;51.554;7.812;2023-04-25T00:02:05;16.75;;;7.70;;
78197;SDS011;67472;51.554;7.812;2023-04-25T00:04:51;16.50;;;7.70;;
78197;SDS011;67472;51.554;7.812;2023-04-25T00:07:37;15.73;;;6.55;;
78197;SDS011;67472;51.554;7.812;2023-04-25T00:10:25;18.20;;;7.10;;
78197;SDS011;67472;51.554;7.812;2023-04-25T00:13:11;20.50;;;6.78;;
78197;SDS011;67472;51.554;7.812;2023-04-25T00:15:58;17.20;;;7.18;;
78197;SDS011;67472;51.554;7.812;2023-04-25T00:18:44;24.27;;;7.40;;
78197;SDS011;67472;51.554;7.812;2023-04-25T00:21:36;19.88;;;8.70;;
78197;SDS011;67472;51.554;7.812;2023-04-25T00:24:25;24.98;;;7.72;;
78197;SDS011;67472;51.554;7.812;2023-04-25T00:27:12;19.20;;;7.22;;
78197;SDS011;67472;51.554;7.812;2023-04-25T00:29:59;17.50;;;7.05;;
78197;SDS011;67472;51.554;7.812;2023-04-25T00:32:46;15.32;;;7.43;;
78197;SDS011;67472;51.554;7.812;2023-04-25T00:35:33;20.63;;;8.02;;
78197;SDS011;67472;51.554;7.812;2023-04-25T00:38:20;20.67;;;9.02;;
78197;SDS011;67472;51.554;7.812;2023-04-25T00:41:07;16.13;;;7.00;;
78197;SDS011;67472;51.554;7.812;2023-04-25T00:43:55;17.25;;;7.55;;
78197;SDS011;67472;51.554;7.812;2023-04-25T00:46:42;16.05;;;7.35;;
78197;SDS011;67472;51.554;7.812;2023-04-25T00:49:29;18.08;;;7.45;;
78197;SDS011;67472;51.554;7.812;2023-04-25T00:52:15;18.70;;;7.85;;
78197;SDS011;67472;51.554;7.812;2023-04-25T00:55:02;13.90;;;7.20;;
78197;SDS011;67472;51.554;7.812;2023-04-25T00:57:49;14.23;;;7.95;;
78197;SDS011;67472;51.554;7.812;2023-04-25T01:00:37;16.23;;;8.18;;
78197;SDS011;67472;51.554;7.812;2023-04-25T01:03:24;14.55;;;7.72;;
78197;SDS011;67472;51.554;7.812;2023-04-25T01:06:13;18.83;;;7.65;;
78197;SDS011;67472;51.554;7.812;2023-04-25T01:08:59;17.17;;;8.63;;
78197;SDS011;67472;51.554;7.812;2023-04-25T01:11:46;20.60;;;8.73;;
78197;SDS011;67472;51.554;7.812;2023-04-25T01:14:32;17.70;;;7.97;;
78197;SDS011;67472;51.554;7.812;2023-04-25T01:17:20;15.85;;;8.60;;
78197;SDS011;67472;51.554;7.812;2023-04-25T01:20:08;15.52;;;9.43;;
78197;SDS011;67472;51.554;7.812;2023-04-25T01:22:58;17.67;;;8.57;;
78197;SDS011;67472;51.554;7.812;2023-04-25T01:25:44;18.10;;;8.77;;
78197;SDS011;67472;51.554;7.812;2023-04-25T01:28:32;18.50;;;8.88;;
78197;SDS011;67472;51.554;7.812;2023-04-25T01:31:19;14.20;;;8.50;;
78197;SDS011;67472;51.554;7.812;2023-04-25T01:34:06;20.58;;;9.73;;
78197;SDS011;67472;51.554;7.812;2023-04-25T01:36:52;15.88;;;8.15;;
78197;SDS011;67472;51.554;7.812;2023-04-25T01:39:40;16.27;;;8.70;;
78197;SDS011;67472;51.554;7.812;2023-04-25T01:42:26;23.55;;;8.65;;
78197;SDS011;67472;51.554;7.812;2023-04-25T01:45:12;15.43;;;8.70;;
78197;SDS011;67472;51.554;7.812;2023-04-25T01:47:59;21.58;;;9.98;;
78197;SDS011;67472;51.554;7.812;2023-04-25T01:50:45;18.10;;;8.88;;
78197;SDS011;67472;51.554;7.812;2023-04-25T01:53:32;20.02;;;10.13;;
78197;SDS011;67472;51.554;7.812;2023-04-25T01:56:23;19.08;;;9.27;;
78197;SDS011;67472;51.554;7.812;2023-04-25T01:59:09;15.95;;;8.23;;
78197;SDS011;67472;51.554;7.812;2023-04-25T02:02:14;16.98;;;9.93;;
78197;SDS011;67472;51.554;7.812;2023-04-25T02:05:00;14.98;;;8.85;;
78197;SDS011;67472;51.554;7.812;2023-04-25T02:07:47;15.25;;;9.10;;
78197;SDS011;67472;51.554;7.812;2023-04-25T02:10:35;17.65;;;9.70;;
78197;SDS011;67472;51.554;7.812;2023-04-25T02:13:39;15.68;;;9.60;;
78197;SDS011;67472;51.554;7.812;2023-04-25T02:17:01;17.73;;;9.15;;
78197;SDS011;67472;51.554;7.812;2023-04-25T02:19:49;17.88;;;9.05;;
78197;SDS011;67472;51.554;7.812;2023-04-25T02:22:35;14.98;;;8.55;;
78197;SDS011;67472;51.554;7.812;2023-04-25T02:25:24;17.65;;;9.07;;
78197;SDS011;67472;51.554;7.812;2023-04-25T02:28:11;22.17;;;9.25;;
78197;SDS011;67472;51.554;7.812;2023-04-25T02:30:59;14.80;;;9.27;;
78197;SDS011;67472;51.554;7.812;2023-04-25T02:33:45;13.57;;;8.93;;
78197;SDS011;67472;51.554;7.812;2023-04-25T02:36:32;15.95;;;9.30;;
78197;SDS011;67472;51.554;7.812;2023-04-25T02:39:20;22.67;;;9.25;;
78197;SDS011;67472;51.554;7.812;2023-04-25T02:42:07;15.82;;;9.35;;
78197;SDS011;67472;51.554;7.812;2023-04-25T02:44:54;17.02;;;8.63;;
78197;SDS011;67472;51.554;7.812;2023-04-25T02:47:41;19.10;;;8.65;;
78197;SDS011;67472;51.554;7.812;2023-04-25T02:50:29;14.25;;;9.07;;
78197;SDS011;67472;51.554;7.812;2023-04-25T02:53:16;18.95;;;9.82;;
78197;SDS011;67472;51.554;7.812;2023-04-25T02:56:07;17.70;;;9.45;;
78197;SDS011;67472;51.554;7.812;2023-04-25T02:58:53;15.80;;;9.88;;
78197;SDS011;67472;51.554;7.812;2023-04-25T03:01:40;16.05;;;9.75;;
78197;SDS011;67472;51.554;7.812;2023-04-25T03:04:27;16.45;;;10.20;;
78197;SDS011;67472;51.554;7.812;2023-04-25T03:07:14;17.85;;;9.55;;
78197;SDS011;67472;51.554;7.812;2023-04-25T03:10:00;20.38;;;10.52;;
78197;SDS011;67472;51.554;7.812;2023-04-25T03:12:48;18.52;;;10.68;;
78197;SDS011;67472;51.554;7.812;2023-04-25T03:15:35;18.00;;;11.18;;
78197;SDS011;67472;51.554;7.812;2023-04-25T03:18:22;22.33;;;11.02;;
78197;SDS011;67472;51.554;7.812;2023-04-25T03:21:09;17.25;;;10.52;;
78197;SDS011;67472;51.554;7.812;2023-04-25T03:23:55;20.48;;;9.50;;
78197;SDS011;67472;51.554;7.812;2023-04-25T03:26:42;24.13;;;11.68;;
78197;SDS011;67472;51.554;7.812;2023-04-25T03:29:28;17.67;;;9.57;;
78197;SDS011;67472;51.554;7.812;2023-04-25T03:32:16;18.60;;;9.48;;
78197;SDS011;67472;51.554;7.812;2023-04-25T03:35:02;19.40;;;10.10;;
78197;SDS011;67472;51.554;7.812;2023-04-25T03:37:51;21.60;;;9.30;;
78197;SDS011;67472;51.554;7.812;2023-04-25T03:40:43;16.17;;;8.93;;
78197;SDS011;67472;51.554;7.812;2023-04-25T03:43:32;16.05;;;10.02;;
78197;SDS011;67472;51.554;7.812;2023-04-25T03:46:23;16.35;;;10.43;;
78197;SDS011;67472;51.554;7.812;2023-04-25T03:49:09;27.00;;;10.38;;
78197;SDS011;67472;51.554;7.812;2023-04-25T03:52:13;21.63;;;9.40;;
78197;SDS011;67472;51.554;7.812;2023-04-25T03:55:00;25.10;;;10.20;;
78197;SDS011;67472;51.554;7.812;2023-04-25T03:57:46;19.38;;;9.25;;
78197;SDS011;67472;51.554;7.812;2023-04-25T04:00:34;14.85;;;9.50;;
78197;SDS011;67472;51.554;7.812;2023-04-25T04:03:20;17.95;;;9.50;;
78197;SDS011;67472;51.554;7.812;2023-04-25T04:06:07;21.52;;;9.57;;
78197;SDS011;67472;51.554;7.812;2023-04-25T04:08:58;17.30;;;8.98;;
78197;SDS011;67472;51.554;7.812;2023-04-25T04:11:46;13.93;;;8.65;;
78197;SDS011;67472;51.554;7.812;2023-04-25T04:14:33;22.77;;;9.45;;
78197;SDS011;67472;51.554;7.812;2023-04-25T04:17:19;21.30;;;9.60;;
78197;SDS011;67472;51.554;7.812;2023-04-25T04:20:07;16.50;;;9.30;;
78197;SDS011;67472;51.554;7.812;2023-04-25T04:22:54;22.88;;;10.43;;
78197;SDS011;67472;51.554;7.812;2023-04-25T04:25:42;22.52;;;9.13;;
78197;SDS011;67472;51.554;7.812;2023-04-25T04:28:42;22.30;;;9.80;;
78197;SDS011;67472;51.554;7.812;2023-04-25T04:31:58;18.50;;;8.15;;
78197;SDS011;67472;51.554;7.812;2023-04-25T04:34:46;21.27;;;8.23;;
78197;SDS011;67472;51.554;7.812;2023-04-25T04:37:35;25.85;;;8.68;;
78197;SDS011;67472;51.554;7.812;2023-04-25T04:40:21;24.52;;;8.95;;
78197;SDS011;67472;51.554;7.812;2023-04-25T04:43:18;17.60;;;8.30;;
78197;SDS011;67472;51.554;7.812;2023-04-25T04:46:21;13.98;;;7.78;;
78197;SDS011;67472;51.554;7.812;2023-04-25T04:49:26;24.25;;;8.73;;
78197;SDS011;67472;51.554;7.812;2023-04-25T04:52:39;16.85;;;8.75;;
78197;SDS011;67472;51.554;7.812;2023-04-25T04:55:51;22.40;;;8.65;;
78197;SDS011;67472;51.554;7.812;2023-04-25T04:59:00;20.40;;;8.23;;
78197;SDS011;67472;51.554;7.812;2023-04-25T05:02:14;16.60;;;8.93;;
78197;SDS011;67472;51.554;7.812;2023-04-25T05:05:09;19.95;;;8.18;;
78197;SDS011;67472;51.554;7.812;2023-04-25T05:08:16;18.17;;;8.10;;
78197;SDS011;67472;51.554;7.812;2023-04-25T05:11:28;16.27;;;8.52;;
78197;SDS011;67472;51.554;7.812;2023-04-25T05:14:28;20.60;;;8.88;;
78197;SDS011;67472;51.554;7.812;2023-04-25T05:17:36;16.75;;;8.18;;
78197;SDS011;67472;51.554;7.812;2023-04-25T05:20:48;15.80;;;7.70;;
78197;SDS011;67472;51.554;7.812;2023-04-25T05:23:54;16.67;;;8.52;;
78197;SDS011;67472;51.554;7.812;2023-04-25T05:26:41;17.23;;;7.43;;
78197;SDS011;67472;51.554;7.812;2023-04-25T05:29:44;18.85;;;8.07;;
78197;SDS011;67472;51.554;7.812;2023-04-25T05:32:55;21.77;;;7.50;;
78197;SDS011;67472;51.554;7.812;2023-04-25T05:35:41;17.80;;;6.78;;
78197;SDS011;67472;51.554;7.812;2023-04-25T05:38:29;18.30;;;7.32;;
78197;SDS011;67472;51.554;7.812;2023-04-25T05:41:34;13.75;;;6.40;;
78197;SDS011;67472;51.554;7.812;2023-04-25T05:44:41;17.73;;;6.78;;
78197;SDS011;67472;51.554;7.812;2023-04-25T05:47:58;17.95;;;6.40;;
78197;SDS011;67472;51.554;7.812;2023-04-25T05:50:57;17.17;;;6.90;;
78197;SDS011;67472;51.554;7.812;2023-04-25T05:54:18;16.75;;;5.45;;
78197;SDS011;67472;51.554;7.812;2023-04-25T05:57:04;11.38;;;5.57;;
78197;SDS011;67472;51.554;7.812;2023-04-25T05:59:51;14.25;;;5.75;;
78197;SDS011;67472;51.554;7.812;2023-04-25T06:02:39;14.93;;;5.03;;
78197;SDS011;67472;51.554;7.812;2023-04-25T06:05:29;11.20;;;4.82;;
78197;SDS011;67472;51.554;7.812;2023-04-25T06:08:15;13.73;;;5.20;;
78197;SDS011;67472;51.554;7.812;2023-04-25T06:11:02;9.68;;;5.25;;
78197;SDS011;67472;51.554;7.812;2023-04-25T06:13:48;12.52;;;4.65;;
78197;SDS011;67472;51.554;7.812;2023-04-25T06:16:35;18.00;;;5.45;;
78197;SDS011;67472;51.554;7.812;2023-04-25T06:19:21;18.17;;;5.22;;
78197;SDS011;67472;51.554;7.812;2023-04-25T06:22:10;19.42;;;5.15;;
78197;SDS011;67472;51.554;7.812;2023-04-25T06:24:58;16.38;;;4.97;;
78197;SDS011;67472;51.554;7.812;2023-04-25T06:27:46;15.98;;;5.13;;
78197;SDS011;67472;51.554;7.812;2023-04-25T06:30:32;17.15;;;4.72;;
78197;SDS011;67472;51.554;7.812;2023-04-25T06:33:24;18.17;;;4.80;;
78197;SDS011;67472;51.554;7.812;2023-04-25T06:36:13;17.80;;;4.78;;
78197;SDS011;67472;51.554;7.812;2023-04-25T06:39:02;12.23;;;5.25;;
78197;SDS011;67472;51.554;7.812;2023-04-25T06:41:50;19.23;;;5.38;;
78197;SDS011;67472;51.554;7.812;2023-04-25T06:45:13;11.75;;;4.60;;
78197;SDS011;67472;51.554;7.812;2023-04-25T06:47:59;16.20;;;4.53;;
78197;SDS011;67472;51.554;7.812;2023-04-25T06:50:46;12.90;;;4.15;;
78197;SDS011;67472;51.554;7.812;2023-04-25T06:53:33;16.00;;;3.97;;
78197;SDS011;67472;51.554;7.812;2023-04-25T06:56:23;10.35;;;3.92;;
78197;SDS011;67472;51.554;7.812;2023-04-25T06:59:22;10.68;;;4.25;;
78197;SDS011;67472;51.554;7.812;2023-04-25T07:02:09;11.57;;;4.35;;
78197;SDS011;67472;51.554;7.812;2023-04-25T07:04:55;15.63;;;4.03;;
78197;SDS011;67472;51.554;7.812;2023-04-25T07:07:44;14.98;;;5.43;;
78197;SDS011;67472;51.554;7.812;2023-04-25T07:10:31;13.40;;;4.32;;
78197;SDS011;67472;51.554;7.812;2023-04-25T07:13:18;14.60;;;4.20;;
78197;SDS011;67472;51.554;7.812;2023-04-25T07:16:05;10.80;;;3.75;;
78197;SDS011;67472;51.554;7.812;2023-04-25T07:18:53;8.95;;;3.90;;
78197;SDS011;67472;51.554;7.812;2023-04-25T07:21:39;9.00;;;3.85;;
78197;SDS011;67472;51.554;7.812;2023-04-25T07:24:26;16.00;;;4.18;;
78197;SDS011;67472;51.554;7.812;2023-04-25T07:27:14;17.40;;;4.43;;
78197;SDS011;67472;51.554;7.812;2023-04-25T07:30:23;17.58;;;3.85;;
78197;SDS011;67472;51.554;7.812;2023-04-25T07:33:10;11.63;;;3.58;;
78197;SDS011;67472;51.554;7.812;2023-04-25T07:35:56;17.70;;;3.92;;
78197;SDS011;67472;51.554;7.812;2023-04-25T07:38:42;15.50;;;4.45;;
78197;SDS011;67472;51.554;7.812;2023-04-25T07:41:29;11.57;;;3.67;;
78197;SDS011;67472;51.554;7.812;2023-04-25T07:44:15;9.35;;;2.92;;
78197;SDS011;67472;51.554;7.812;2023-04-25T07:47:03;13.80;;;3.63;;
78197;SDS011;67472;51.554;7.812;2023-04-25T07:49:51;16.98;;;4.10;;
78197;SDS011;67472;51.554;7.812;2023-04-25T07:52:39;10.82;;;4.28;;
78197;SDS011;67472;51.554;7.812;2023-04-25T07:55:41;15.05;;;3.20;;
78197;SDS011;67472;51.554;7.812;2023-04-25T07:58:33;10.07;;;3.42;;
78197;SDS011;67472;51.554;7.812;2023-04-25T08:01:22;18.67;;;3.67;;
78197;SDS011;67472;51.554;7.812;2023-04-25T08:04:17;9.65;;;3.60;;
78197;SDS011;67472;51.554;7.812;2023-04-25T08:07:13;11.57;;;3.55;;
78197;SDS011;67472;51.554;7.812;2023-04-25T08:10:07;11.75;;;3.58;;
78197;SDS011;67472;51.554;7.812;2023-04-25T08:12:54;14.27;;;3.45;;
78197;SDS011;67472;51.554;7.812;2023-04-25T08:15:41;12.73;;;3.08;;
78197;SDS011;67472;51.554;7.812;2023-04-25T08:18:27;10.98;;;3.28;;
78197;SDS011;67472;51.554;7.812;2023-04-25T08:21:15;12.25;;;3.42;;
78197;SDS011;67472;51.554;7.812;2023-04-25T08:24:03;10.40;;;3.35;;
78197;SDS011;67472;51.554;7.812;2023-04-25T08:26:53;11.75;;;2.85;;
78197;SDS011;67472;51.554;7.812;2023-04-25T08:29:42;12.23;;;3.22;;
78197;SDS011;67472;51.554;7.812;2023-04-25T08:32:28;12.30;;;2.95;;
78197;SDS011;67472;51.554;7.812;2023-04-25T08:35:32;14.75;;;2.90;;
78197;SDS011;67472;51.554;7.812;2023-04-25T08:38:21;8.52;;;2.40;;
78197;SDS011;67472;51.554;7.812;2023-04-25T08:41:07;9.43;;;2.50;;
78197;SDS011;67472;51.554;7.812;2023-04-25T08:43:56;8.70;;;2.50;;
78197;SDS011;67472;51.554;7.812;2023-04-25T08:46:45;7.38;;;2.50;;
78197;SDS011;67472;51.554;7.812;2023-04-25T08:49:45;8.65;;;2.60;;
78197;SDS011;67472;51.554;7.812;2023-04-25T08:52:35;10.15;;;3.35;;
78197;SDS011;67472;51.554;7.812;2023-04-25T08:55:24;11.23;;;3.20;;
78197;SDS011;67472;51.554;7.812;2023-04-25T08:58:15;18.83;;;3.03;;
78197;SDS011;67472;51.554;7.812;2023-04-25T09:01:04;9.63;;;3.00;;
78197;SDS011;67472;51.554;7.812;2023-04-25T09:03:58;7.90;;;2.80;;
78197;SDS011;67472;51.554;7.812;2023-04-25T09:06:44;12.95;;;3.05;;
78197;SDS011;67472;51.554;7.812;2023-04-25T09:09:31;6.28;;;2.40;;
78197;SDS011;67472;51.554;7.812;2023-04-25T09:12:19;11.10;;;2.70;;
78197;SDS011;67472;51.554;7.812;2023-04-25T09:15:07;8.93;;;2.65;;
78197;SDS011;67472;51.554;7.812;2023-04-25T09:18:23;6.28;;;2.33;;
78197;SDS011;67472;51.554;7.812;2023-04-25T09:21:11;10.02;;;2.55;;
78197;SDS011;67472;51.554;7.812;2023-04-25T09:23:58;7.32;;;2.72;;
78197;SDS011;67472;51.554;7.812;2023-04-25T09:26:44;6.22;;;2.72;;
78197;SDS011;67472;51.554;7.812;2023-04-25T09:29:32;11.25;;;2.10;;
78197;SDS011;67472;51.554;7.812;2023-04-25T09:32:21;8.35;;;2.58;;
78197;SDS011;67472;51.554;7.812;2023-04-25T09:35:12;10.30;;;2.70;;
78197;SDS011;67472;51.554;7.812;2023-04-25T09:38:11;5.95;;;2.03;;
78197;SDS011;67472;51.554;7.812;2023-04-25T09:41:22;5.80;;;2.47;;
78197;SDS011;67472;51.554;7.812;2023-04-25T09:44:09;8.10;;;2.17;;
78197;SDS011;67472;51.554;7.812;2023-04-25T09:47:02;8.95;;;2.10;;
78197;SDS011;67472;51.554;7.812;2023-04-25T09:49:49;6.47;;;2.17;;
78197;SDS011;67472;51.554;7.812;2023-04-25T09:52:43;5.95;;;2.33;;
78197;SDS011;67472;51.554;7.812;2023-04-25T09:55:35;5.93;;;2.05;;
78197;SDS011;67472;51.554;7.812;2023-04-25T09:58:22;5.32;;;1.92;;
78197;SDS011;67472;51.554;7.812;2023-04-25T10:01:11;6.55;;;2.47;;
78197;SDS011;67472;51.554;7.812;2023-04-25T10:04:16;4.63;;;2.13;;
78197;SDS011;67472;51.554;7.812;2023-04-25T10:07:11;8.15;;;2.50;;
78197;SDS011;67472;51.554;7.812;2023-04-25T10:10:03;15.10;;;2.65;;
78197;SDS011;67472;51.554;7.812;2023-04-25T10:12:51;8.60;;;2.47;;
78197;SDS011;67472;51.554;7.812;2023-04-25T10:15:38;7.15;;;2.80;;
78197;SDS011;67472;51.554;7.812;2023-04-25T10:18:25;7.43;;;2.45;;
78197;SDS011;67472;51.554;7.812;2023-04-25T10:21:13;5.70;;;1.65;;
78197;SDS011;67472;51.554;7.812;2023-04-25T10:24:01;7.00;;;2.10;;
78197;SDS011;67472;51.554;7.812;2023-04-25T10:26:49;11.63;;;2.80;;
78197;SDS011;67472;51.554;7.812;2023-04-25T10:29:36;6.90;;;2.50;;
78197;SDS011;67472;51.554;7.812;2023-04-25T10:32:23;8.43;;;1.90;;
78197;SDS011;67472;51.554;7.812;2023-04-25T10:35:10;8.45;;;1.85;;
78197;SDS011;67472;51.554;7.812;2023-04-25T10:38:02;9.13;;;2.22;;
78197;SDS011;67472;51.554;7.812;2023-04-25T10:41:02;8.80;;;1.50;;
78197;SDS011;67472;51.554;7.812;2023-04-25T10:43:50;8.40;;;2.10;;
78197;SDS011;67472;51.554;7.812;2023-04-25T10:46:45;8.82;;;2.53;;
78197;SDS011;67472;51.554;7.812;2023-04-25T10:49:32;6.80;;;2.03;;
78197;SDS011;67472;51.554;7.812;2023-04-25T10:52:24;6.10;;;2.13;;
78197;SDS011;67472;51.554;7.812;2023-04-25T10:55:14;7.97;;;1.67;;
78197;SDS011;67472;51.554;7.812;2023-04-25T10:58:00;3.35;;;1.73;;
78197;SDS011;67472;51.554;7.812;2023-04-25T11:00:46;6.35;;;2.15;;
78197;SDS011;67472;51.554;7.812;2023-04-25T11:03:33;6.00;;;1.92;;
78197;SDS011;67472;51.554;7.812;2023-04-25T11:06:27;4.60;;;1.60;;
78197;SDS011;67472;51.554;7.812;2023-04-25T11:09:23;8.85;;;2.25;;
78197;SDS011;67472;51.554;7.812;2023-04-25T11:12:14;5.82;;;1.65;;
78197;SDS011;67472;51.554;7.812;2023-04-25T11:15:02;4.93;;;1.73;;
78197;SDS011;67472;51.554;7.812;2023-04-25T11:17:50;6.53;;;1.65;;
78197;SDS011;67472;51.554;7.812;2023-04-25T11:20:37;5.57;;;1.75;;
78197;SDS011;67472;51.554;7.812;2023-04-25T11:23:23;5.50;;;2.08;;
78197;SDS011;67472;51.554;7.812;2023-04-25T11:26:10;5.60;;;2.38;;
78197;SDS011;67472;51.554;7.812;2023-04-25T11:28:59;9.80;;;2.33;;
78197;SDS011;67472;51.554;7.812;2023-04-25T11:31:46;6.72;;;2.00;;
78197;SDS011;67472;51.554;7.812;2023-04-25T11:34:33;4.80;;;1.90;;
78197;SDS011;67472;51.554;7.812;2023-04-25T11:37:20;10.15;;;2.55;;
78197;SDS011;67472;51.554;7.812;2023-04-25T11:40:07;6.28;;;2.30;;
78197;SDS011;67472;51.554;7.812;2023-04-25T11:42:56;6.50;;;2.20;;
78197;SDS011;67472;51.554;7.812;2023-04-25T11:45:47;5.00;;;1.98;;
78197;SDS011;67472;51.554;7.812;2023-04-25T11:48:38;10.43;;;2.00;;
78197;SDS011;67472;51.554;7.812;2023-04-25T11:51:24;6.53;;;2.50;;
78197;SDS011;67472;51.554;7.812;2023-04-25T11:54:12;6.82;;;1.67;;
78197;SDS011;67472;51.554;7.812;2023-04-25T11:57:01;3.33;;;1.45;;
78197;SDS011;67472;51.554;7.812;2023-04-25T12:00:43;1.75;;;1.30;;
78197;SDS011;67472;51.554;7.812;2023-04-25T12:04:18;2.42;;;1.00;;
78197;SDS011;67472;51.554;7.812;2023-04-25T12:07:09;1.15;;;1.00;;
78197;SDS011;67472;51.554;7.812;2023-04-25T12:09:55;2.67;;;0.73;;
78197;SDS011;67472;51.554;7.812;2023-04-25T12:12:42;1.63;;;0.90;;
78197;SDS011;67472;51.554;7.812;2023-04-25T12:15:30;2.55;;;1.00;;
78197;SDS011;67472;51.554;7.812;2023-04-25T12:18:22;8.35;;;1.33;;
78197;SDS011;67472;51.554;7.812;2023-04-25T12:21:09;2.70;;;1.08;;
78197;SDS011;67472;51.554;7.812;2023-04-25T12:23:56;4.72;;;1.23;;
78197;SDS011;67472;51.554;7.812;2023-04-25T12:26:46;3.80;;;0.90;;
78197;SDS011;67472;51.554;7.812;2023-04-25T12:29:33;3.78;;;0.90;;
78197;SDS011;67472;51.554;7.812;2023-04-25T12:32:20;4.63;;;1.20;;
78197;SDS011;67472;51.554;7.812;2023-04-25T12:35:08;1.70;;;1.10;;
78197;SDS011;67472;51.554;7.812;2023-04-25T12:37:55;3.53;;;0.93;;
78197;SDS011;67472;51.554;7.812;2023-04-25T12:40:41;4.60;;;1.10;;
78197;SDS011;67472;51.554;7.812;2023-04-25T12:43:28;3.22;;;1.15;;
78197;SDS011;67472;51.554;7.812;2023-04-25T12:46:14;3.33;;;1.23;;
78197;SDS011;67472;51.554;7.812;2023-04-25T12:49:01;4.63;;;1.27;;
78197;SDS011;67472;51.554;7.812;2023-04-25T12:51:49;3.75;;;1.05;;
78197;SDS011;67472;51.554;7.812;2023-04-25T12:54:36;4.50;;;1.15;;
78197;SDS011;67472;51.554;7.812;2023-04-25T12:57:23;3.17;;;1.08;;
78197;SDS011;67472;51.554;7.812;2023-04-25T13:00:10;2.45;;;1.10;;
78197;SDS011;67472;51.554;7.812;2023-04-25T13:02:59;5.70;;;1.38;;
78197;SDS011;67472;51.554;7.812;2023-04-25T13:05:45;2.25;;;1.10;;
78197;SDS011;67472;51.554;7.812;2023-04-25T13:08:33;4.00;;;1.35;;
78197;SDS011;67472;51.554;7.812;2023-04-25T13:11:21;8.15;;;1.83;;
78197;SDS011;67472;51.554;7.812;2023-04-25T13:14:07;5.70;;;1.48;;
78197;SDS011;67472;51.554;7.812;2023-04-25T13:16:54;7.55;;;1.80;;
78197;SDS011;67472;51.554;7.812;2023-04-25T13:19:40;6.20;;;1.73;;
78197;SDS011;67472;51.554;7.812;2023-04-25T13:22:27;6.95;;;1.70;;
78197;SDS011;67472;51.554;7.812;2023-04-25T13:25:14;7.45;;;1.85;;
78197;SDS011;67472;51.554;7.812;2023-04-25T13:28:01;4.10;;;1.40;;
78197;SDS011;67472;51.554;7.812;2023-04-25T13:30:47;6.88;;;2.30;;
78197;SDS011;67472;51.554;7.812;2023-04-25T13:33:33;7.13;;;1.90;;
78197;SDS011;67472;51.554;7.812;2023-04-25T13:36:20;4.03;;;1.38;;
78197;SDS011;67472;51.554;7.812;2023-04-25T13:39:06;2.72;;;1.50;;
78197;SDS011;67472;51.554;7.812;2023-04-25T13:41:54;4.63;;;1.85;;
78197;SDS011;67472;51.554;7.812;2023-04-25T13:44:40;3.10;;;1.30;;
78197;SDS011;67472;51.554;7.812;2023-04-25T13:47:27;3.83;;;1.65;;
78197;SDS011;67472;51.554;7.812;2023-04-25T13:50:13;4.47;;;1.70;;
78197;SDS011;67472;51.554;7.812;2023-04-25T13:53:00;3.70;;;1.70;;
78197;SDS011;67472;51.554;7.812;2023-04-25T13:55:47;6.40;;;1.67;;
78197;SDS011;67472;51.554;7.812;2023-04-25T13:58:35;5.47;;;1.48;;
78197;SDS011;67472;51.554;7.812;2023-04-25T14:01:21;2.83;;;1.30;;
78197;SDS011;67472;51.554;7.812;2023-04-25T14:04:07;2.92;;;1.25;;
78197;SDS011;67472;51.554;7.812;2023-04-25T14:06:53;5.60;;;1.38;;
78197;SDS011;67472;51.554;7.812;2023-04-25T14:09:40;5.35;;;1.42;;
78197;SDS011;67472;51.554;7.812;2023-04-25T14:12:26;3.38;;;1.52;;
78197;SDS011;67472;51.554;7.812;2023-04-25T14:15:14;5.45;;;1.40;;
78197;SDS011;67472;51.554;7.812;2023-04-25T14:18:00;3.30;;;1.30;;
78197;SDS011;67472;51.554;7.812;2023-04-25T14:20:47;4.45;;;1.40;;
78197;SDS011;67472;51.554;7.812;2023-04-25T14:23:34;2.97;;;1.23;;
78197;SDS011;67472;51.554;7.812;2023-04-25T14:26:20;3.50;;;1.20;;
78197;SDS011;67472;51.554;7.812;2023-04-25T14:29:06;2.75;;;1.73;;
78197;SDS011;67472;51.554;7.812;2023-04-25T14:31:54;3.33;;;1.50;;
78197;SDS011;67472;51.554;7.812;2023-04-25T14:34:42;1.58;;;1.10;;
78197;SDS011;67472;51.554;7.812;2023-04-25T14:37:29;2.92;;;1.25;;
78197;SDS011;67472;51.554;7.812;2023-04-25T14:40:16;3.00;;;1.08;;
78197;SDS011;67472;51.554;7.812;2023-04-25T14:43:02;5.90;;;2.25;;
78197;SDS011;67472;51.554;7.812;2023-04-25T14:45:48;8.48;;;1.08;;
78197;SDS011;67472;51.554;7.812;2023-04-25T14:48:36;3.40;;;1.20;;
78197;SDS011;67472;51.554;7.812;2023-04-25T14:51:22;4.38;;;1.48;;
78197;SDS011;67472;51.554;7.812;2023-04-25T14:54:09;3.85;;;1.13;;
78197;SDS011;67472;51.554;7.812;2023-04-25T14:56:56;2.80;;;1.30;;
78197;SDS011;67472;51.554;7.812;2023-04-25T14:59:43;2.33;;;1.42;;
78197;SDS011;67472;51.554;7.812;2023-04-25T15:02:29;3.50;;;1.05;;
78197;SDS011;67472;51.554;7.812;2023-04-25T15:05:17;1.75;;;1.00;;
78197;SDS011;67472;51.554;7.812;2023-04-25T15:08:04;6.28;;;1.20;;
78197;SDS011;67472;51.554;7.812;2023-04-25T15:10:51;4.38;;;1.42;;
78197;SDS011;67472;51.554;7.812;2023-04-25T15:13:38;5.63;;;1.17;;
78197;SDS011;67472;51.554;7.812;2023-04-25T15:16:24;3.05;;;1.23;;
78197;SDS011;67472;51.554;7.812;2023-04-25T15:19:10;1.58;;;1.27;;
78197;SDS011;67472;51.554;7.812;2023-04-25T15:21:59;1.98;;;1.70;;
78197;SDS011;67472;51.554;7.812;2023-04-25T15:24:45;4.38;;;1.38;;
78197;SDS011;67472;51.554;7.812;2023-04-25T15:27:32;3.70;;;1.17;;
78197;SDS011;67472;51.554;7.812;2023-04-25T15:30:19;4.07;;;1.88;;
78197;SDS011;67472;51.554;7.812;2023-04-25T15:33:05;3.22;;;1.30;;
78197;SDS011;67472;51.554;7.812;2023-04-25T15:35:51;3.65;;;1.48;;
78197;SDS011;67472;51.554;7.812;2023-04-25T15:38:39;5.40;;;1.85;;
78197;SDS011;67472;51.554;7.812;2023-04-25T15:41:25;2.50;;;1.50;;
78197;SDS011;67472;51.554;7.812;2023-04-25T15:44:12;2.10;;;1.80;;
78197;SDS011;67472;51.554;7.812;2023-04-25T15:46:58;3.38;;;1.38;;
78197;SDS011;67472;51.554;7.812;2023-04-25T15:49:45;3.03;;;1.40;;
78197;SDS011;67472;51.554;7.812;2023-04-25T15:52:32;5.82;;;1.98;;
78197;SDS011;67472;51.554;7.812;2023-04-25T15:55:19;5.57;;;2.80;;
78197;SDS011;67472;51.554;7.812;2023-04-25T15:58:06;9.52;;;3.13;;
78197;SDS011;67472;51.554;7.812;2023-04-25T16:00:52;5.72;;;1.70;;
78197;SDS011;67472;51.554;7.812;2023-04-25T16:03:39;3.90;;;1.58;;
78197;SDS011;67472;51.554;7.812;2023-04-25T16:06:25;6.13;;;1.40;;
78197;SDS011;67472;51.554;7.812;2023-04-25T16:09:12;4.57;;;1.55;;
78197;SDS011;67472;51.554;7.812;2023-04-25T16:12:00;5.88;;;2.00;;
78197;SDS011;67472;51.554;7.812;2023-04-25T16:14:46;1.35;;;1.25;;
78197;SDS011;67472;51.554;7.812;2023-04-25T16:17:33;4.05;;;1.85;;
78197;SDS011;67472;51.554;7.812;2023-04-25T16:20:20;7.38;;;3.15;;
78197;SDS011;67472;51.554;7.812;2023-04-25T16:23:07;10.30;;;2.85;;
78197;SDS011;67472;51.554;7.812;2023-04-25T16:25:53;2.85;;;1.42;;
78197;SDS011;67472;51.554;7.812;2023-04-25T16:28:41;3.58;;;1.60;;
78197;SDS011;67472;51.554;7.812;2023-04-25T16:31:28;4.38;;;1.77;;
78197;SDS011;67472;51.554;7.812;2023-04-25T16:34:14;6.57;;;2.72;;
78197;SDS011;67472;51.554;7.812;2023-04-25T16:37:00;3.60;;;1.60;;
78197;SDS011;67472;51.554;7.812;2023-04-25T16:39:46;1.60;;;1.25;;
78197;SDS011;67472;51.554;7.812;2023-04-25T16:42:33;5.53;;;1.88;;
78197;SDS011;67472;51.554;7.812;2023-04-25T16:45:21;5.82;;;1.73;;
78197;SDS011;67472;51.554;7.812;2023-04-25T16:48:08;4.43;;;2.53;;
78197;SDS011;67472;51.554;7.812;2023-04-25T16:50:54;8.38;;;1.90;;
78197;SDS011;67472;51.554;7.812;2023-04-25T16:53:40;3.58;;;1.60;;
78197;SDS011;67472;51.554;7.812;2023-04-25T16:56:27;5.43;;;2.30;;